createdAt,value
2023-04-27T00:01:15.493Z,5.35
2023-04-27T00:03:46.502Z,5.00
2023-04-27T00:06:20.080Z,5.60
2023-04-27T00:08:51.460Z,5.10
2023-04-27T00:11:22.615Z,4.72
2023-04-27T00:13:54.108Z,5.10
2023-04-27T00:16:24.930Z,4.60
2023-04-27T00:18:56.118Z,4.00
2023-04-27T00:21:30.136Z,4.15
2023-04-27T00:24:00.779Z,3.78
2023-04-27T00:26:31.542Z,4.05
2023-04-27T00:29:03.592Z,3.90
2023-04-27T00:31:34.387Z,4.20
2023-04-27T00:34:05.963Z,3.72
2023-04-27T00:36:39.853Z,3.85
2023-04-27T00:39:10.536Z,4.10
2023-04-27T00:41:42.197Z,3.65
2023-04-27T00:44:12.979Z,3.55
2023-04-27T00:46:44.001Z,3.60
2023-04-27T00:49:17.636Z,3.20
2023-04-27T00:51:51.162Z,3.58
2023-04-27T00:54:23.756Z,3.55
2023-04-27T00:56:55.927Z,3.45
2023-04-27T00:59:26.765Z,4.25
2023-04-27T01:01:59.258Z,3.78
2023-04-27T01:04:32.607Z,3.95
2023-04-27T01:07:06.279Z,4.10
2023-04-27T01:09:36.993Z,4.57
2023-04-27T01:12:08.062Z,3.90
2023-04-27T01:14:39.887Z,4.35
2023-04-27T01:17:11.168Z,4.50
2023-04-27T01:19:42.590Z,3.88
2023-04-27T01:22:17.143Z,3.38
2023-04-27T01:24:50.702Z,4.25
2023-04-27T01:27:21.600Z,4.47
2023-04-27T01:29:52.379Z,3.97
2023-04-27T01:32:23.226Z,4.43
2023-04-27T01:34:57.072Z,4.38
2023-04-27T01:37:30.554Z,3.80
2023-04-27T01:40:04.911Z,4.63
2023-04-27T01:42:36.543Z,4.53
2023-04-27T01:45:08.179Z,5.07
2023-04-27T01:47:39.304Z,5.78
2023-04-27T01:50:11.114Z,6.07
2023-04-27T01:52:43.615Z,6.00
2023-04-27T01:55:17.027Z,5.88
2023-04-27T01:57:47.737Z,6.07
2023-04-27T02:00:19.073Z,7.53
2023-04-27T02:02:54.629Z,7.55
2023-04-27T02:05:27.076Z,7.32
2023-04-27T02:07:57.927Z,7.63
2023-04-27T02:10:31.357Z,7.15
2023-04-27T02:13:04.398Z,6.88
2023-04-27T02:15:35.830Z,6.95
2023-04-27T02:18:07.280Z,6.72
2023-04-27T02:20:38.770Z,6.88
2023-04-27T02:23:09.999Z,6.85
2023-04-27T02:25:47.006Z,6.53
2023-04-27T02:28:17.891Z,6.25
2023-04-27T02:30:49.157Z,6.63
2023-04-27T02:33:19.953Z,6.13
2023-04-27T02:35:50.922Z,5.70
2023-04-27T02:38:21.644Z,6.05
2023-04-27T02:40:59.428Z,5.35
2023-04-27T02:43:30.453Z,6.30
2023-04-27T02:46:06.670Z,5.20
2023-04-27T02:48:37.348Z,6.00
2023-04-27T02:51:09.391Z,5.63
2023-04-27T02:53:40.233Z,6.30
2023-04-27T02:56:13.674Z,5.80
2023-04-27T02:58:45.157Z,5.75
2023-04-27T03:01:16.167Z,6.07
2023-04-27T03:03:50.060Z,6.85
2023-04-27T03:06:20.993Z,7.00
2023-04-27T03:08:51.836Z,7.35
2023-04-27T03:11:25.218Z,7.78
2023-04-27T03:13:56.620Z,7.82
2023-04-27T03:16:27.429Z,7.45
2023-04-27T03:18:58.417Z,5.90
2023-04-27T03:21:29.485Z,8.00
2023-04-27T03:24:00.398Z,7.80
2023-04-27T03:26:33.819Z,4.90
2023-04-27T03:29:04.587Z,3.38
2023-04-27T03:31:35.412Z,2.88
2023-04-27T03:34:06.232Z,2.10
2023-04-27T03:36:37.034Z,2.38
2023-04-27T03:39:08.366Z,2.00
2023-04-27T03:41:41.837Z,2.30
2023-04-27T03:44:14.640Z,2.97
2023-04-27T03:46:46.110Z,2.90
2023-04-27T03:49:16.939Z,3.47
2023-04-27T03:51:47.776Z,3.33
2023-04-27T03:54:19.000Z,3.92
2023-04-27T03:56:52.811Z,3.88
2023-04-27T03:59:23.685Z,3.15
2023-04-27T04:01:57.094Z,3.70
2023-04-27T04:04:29.258Z,3.22
2023-04-27T04:07:00.597Z,4.95
2023-04-27T04:09:31.621Z,4.70
2023-04-27T04:12:05.207Z,5.45
2023-04-27T04:14:36.152Z,4.68
2023-04-27T04:17:06.924Z,4.78
2023-04-27T04:19:37.725Z,4.50
2023-04-27T04:22:08.509Z,4.47
2023-04-27T04:24:40.527Z,4.60
2023-04-27T04:27:13.986Z,6.07
2023-04-27T04:29:44.793Z,5.53
2023-04-27T04:32:18.058Z,5.18
2023-04-27T04:34:52.748Z,4.40
2023-04-27T04:37:25.327Z,3.67
2023-04-27T04:39:56.258Z,3.70
2023-04-27T04:42:31.753Z,3.83
2023-04-27T04:45:04.222Z,4.13
2023-04-27T04:47:37.054Z,3.88
2023-04-27T04:50:09.149Z,4.20
2023-04-27T04:52:40.372Z,4.32
2023-04-27T04:55:12.179Z,4.43
2023-04-27T04:57:45.679Z,6.90
2023-04-27T05:00:18.390Z,5.65
2023-04-27T05:02:49.874Z,5.53
2023-04-27T05:05:20.959Z,5.15
2023-04-27T05:07:51.818Z,4.60
2023-04-27T05:10:22.784Z,4.18
2023-04-27T05:12:56.325Z,5.47
2023-04-27T05:15:27.466Z,5.93
2023-04-27T05:17:58.238Z,6.43
2023-04-27T05:20:29.175Z,6.10
2023-04-27T05:23:00.290Z,6.53
2023-04-27T05:25:33.660Z,5.75
2023-04-27T05:28:07.353Z,6.43
2023-04-27T05:30:38.717Z,6.78
2023-04-27T05:33:09.677Z,7.93
2023-04-27T05:35:40.690Z,8.20
2023-04-27T05:38:11.540Z,6.43
2023-04-27T05:40:42.295Z,7.20
2023-04-27T05:43:15.914Z,7.43
2023-04-27T05:45:46.779Z,7.82
2023-04-27T05:48:17.566Z,6.82
2023-04-27T05:50:48.456Z,7.50
2023-04-27T05:53:19.349Z,9.02
2023-04-27T05:55:50.184Z,8.70
2023-04-27T05:58:23.606Z,7.82
2023-04-27T06:00:54.510Z,7.78
2023-04-27T06:03:25.448Z,10.73
2023-04-27T06:06:00.127Z,13.88
2023-04-27T06:08:31.300Z,14.30
2023-04-27T06:11:02.201Z,17.52
2023-04-27T06:13:35.906Z,18.80
2023-04-27T06:16:07.324Z,16.77
2023-04-27T06:18:38.166Z,16.55
2023-04-27T06:21:09.163Z,15.80
2023-04-27T06:23:39.921Z,14.25
2023-04-27T06:26:10.811Z,12.27
2023-04-27T06:28:44.302Z,11.80
2023-04-27T06:31:15.584Z,8.85
2023-04-27T06:33:46.478Z,11.55
2023-04-27T06:36:17.409Z,8.63
2023-04-27T06:38:48.265Z,8.52
2023-04-27T06:41:19.133Z,8.30
2023-04-27T06:43:52.641Z,6.72
2023-04-27T06:46:23.971Z,5.85
2023-04-27T06:48:54.900Z,6.35
2023-04-27T06:51:25.791Z,5.68
2023-04-27T06:53:57.556Z,6.68
2023-04-27T06:56:28.585Z,6.47
2023-04-27T06:59:02.163Z,6.65
2023-04-27T07:01:33.528Z,6.88
2023-04-27T07:04:04.884Z,7.07
2023-04-27T07:06:36.698Z,6.93
2023-04-27T07:09:19.929Z,6.85
2023-04-27T07:11:51.229Z,6.88
2023-04-27T07:14:24.619Z,7.88
2023-04-27T07:16:55.487Z,7.38
2023-04-27T07:19:26.368Z,9.25
2023-04-27T07:21:57.439Z,9.98
2023-04-27T07:24:28.222Z,9.50
2023-04-27T07:26:59.642Z,10.07
2023-04-27T07:29:33.431Z,9.13
2023-04-27T07:32:04.493Z,8.80
2023-04-27T07:34:49.184Z,9.00
2023-04-27T07:37:24.448Z,8.07
2023-04-27T07:39:55.365Z,8.00
2023-04-27T07:42:26.078Z,8.70
2023-04-27T07:45:00.313Z,9.45
2023-04-27T07:47:31.418Z,8.80
2023-04-27T07:50:02.056Z,8.98
2023-04-27T07:52:34.538Z,8.93
2023-04-27T07:55:05.292Z,8.40
2023-04-27T07:57:36.224Z,9.13
2023-04-27T08:00:11.938Z,8.40
2023-04-27T08:02:45.654Z,8.07
2023-04-27T08:05:17.077Z,8.35
2023-04-27T08:07:48.176Z,6.28
2023-04-27T08:10:19.350Z,5.50
2023-04-27T08:12:50.566Z,8.57
2023-04-27T08:15:24.258Z,6.93
2023-04-27T08:17:55.190Z,5.53
2023-04-27T08:20:25.948Z,4.97
2023-04-27T08:22:56.946Z,6.07
2023-04-27T08:25:27.710Z,5.85
2023-04-27T08:27:58.518Z,5.25
2023-04-27T08:30:32.048Z,7.70
2023-04-27T08:33:02.911Z,5.70
2023-04-27T08:35:33.742Z,6.10
2023-04-27T08:38:04.550Z,8.23
2023-04-27T08:40:35.241Z,5.60
2023-04-27T08:43:06.096Z,5.68
2023-04-27T08:45:39.651Z,6.63
2023-04-27T08:48:10.362Z,6.40
2023-04-27T08:50:45.197Z,7.57
2023-04-27T08:53:22.503Z,5.65
2023-04-27T08:55:55.543Z,7.25
2023-04-27T08:58:26.356Z,6.28
2023-04-27T09:00:59.846Z,5.93
2023-04-27T09:03:30.832Z,6.80
2023-04-27T09:06:05.556Z,5.88
2023-04-27T09:11:17.758Z,5.68
2023-04-27T09:13:48.994Z,5.80
2023-04-27T09:16:27.121Z,5.35
2023-04-27T09:18:59.341Z,5.45
2023-04-27T09:21:31.735Z,4.25
2023-04-27T09:24:12.895Z,5.55
2023-04-27T09:26:43.874Z,5.38
2023-04-27T09:29:15.105Z,4.65
2023-04-27T09:31:48.938Z,5.53
2023-04-27T09:34:19.911Z,4.20
2023-04-27T09:36:51.446Z,3.90
2023-04-27T09:39:22.659Z,4.82
2023-04-27T09:41:53.571Z,4.75
2023-04-27T09:44:24.682Z,4.05
2023-04-27T09:47:01.243Z,4.25
2023-04-27T09:49:32.256Z,5.30
2023-04-27T09:52:03.014Z,5.03
2023-04-27T09:54:36.965Z,5.03
2023-04-27T09:57:21.109Z,4.18
2023-04-27T10:00:08.334Z,4.18
2023-04-27T10:02:53.629Z,4.93
2023-04-27T10:05:45.797Z,4.43
2023-04-27T10:08:17.168Z,4.13
2023-04-27T10:10:52.087Z,3.83
2023-04-27T10:13:28.576Z,4.50
2023-04-27T10:15:59.252Z,3.50
2023-04-27T10:18:33.985Z,3.72
2023-04-27T10:21:13.913Z,3.33
2023-04-27T10:23:51.483Z,3.28
2023-04-27T10:26:29.737Z,3.30
2023-04-27T10:29:09.580Z,4.20
2023-04-27T10:31:47.487Z,3.40
2023-04-27T10:34:22.420Z,4.55
2023-04-27T10:36:53.114Z,4.28
2023-04-27T10:39:43.663Z,4.47
2023-04-27T10:42:17.504Z,4.85
2023-04-27T10:44:59.606Z,4.00
2023-04-27T10:47:41.571Z,5.70
2023-04-27T10:50:18.836Z,4.65
2023-04-27T10:52:50.215Z,3.45
2023-04-27T10:55:22.275Z,3.53
2023-04-27T10:57:55.741Z,3.40
2023-04-27T11:00:29.069Z,3.72
2023-04-27T11:03:02.046Z,3.70
2023-04-27T11:05:36.482Z,4.07
2023-04-27T11:08:10.933Z,3.63
2023-04-27T11:10:47.511Z,3.93
2023-04-27T11:13:19.876Z,3.83
2023-04-27T11:15:52.229Z,4.60
2023-04-27T11:18:25.493Z,3.70
2023-04-27T11:21:10.517Z,3.92
2023-04-27T11:23:42.947Z,4.20
2023-04-27T11:26:14.923Z,4.82
2023-04-27T11:28:46.259Z,4.88
2023-04-27T11:31:17.243Z,4.63
2023-04-27T11:33:52.340Z,4.60
2023-04-27T11:36:27.496Z,5.03
2023-04-27T11:39:01.995Z,5.43
2023-04-27T11:41:46.602Z,5.50
2023-04-27T11:44:17.228Z,6.03
2023-04-27T11:46:48.647Z,5.53
2023-04-27T11:49:19.374Z,5.65
2023-04-27T11:51:53.022Z,6.55
2023-04-27T11:54:31.689Z,6.72
2023-04-27T11:57:08.690Z,8.70
2023-04-27T11:59:39.381Z,8.25
2023-04-27T12:02:10.590Z,9.35
2023-04-27T12:04:41.861Z,9.32
2023-04-27T12:07:15.443Z,8.68
2023-04-27T12:09:46.544Z,8.63
2023-04-27T12:12:18.704Z,15.10
2023-04-27T12:14:49.434Z,12.48
2023-04-27T12:17:20.651Z,9.95
2023-04-27T12:19:51.410Z,12.48
2023-04-27T12:22:24.820Z,9.13
2023-04-27T12:24:55.584Z,16.48
2023-04-27T12:27:26.848Z,11.85
2023-04-27T12:29:59.728Z,11.90
2023-04-27T12:32:30.928Z,10.00
2023-04-27T12:35:01.903Z,7.80
2023-04-27T12:37:38.368Z,7.25
2023-04-27T12:40:11.922Z,8.25
2023-04-27T12:42:42.687Z,8.45
2023-04-27T12:45:14.079Z,7.60
2023-04-27T12:47:58.656Z,8.90
2023-04-27T12:50:32.680Z,7.55
2023-04-27T12:53:06.179Z,7.18
2023-04-27T12:55:37.205Z,8.23
2023-04-27T12:58:08.165Z,8.00
2023-04-27T13:00:38.913Z,6.20
2023-04-27T13:03:10.020Z,6.38
2023-04-27T13:05:40.822Z,5.65
2023-04-27T13:08:14.198Z,6.00
2023-04-27T13:10:44.877Z,5.43
2023-04-27T13:13:15.743Z,7.05
2023-04-27T13:15:46.800Z,6.35
2023-04-27T13:18:17.677Z,5.45
2023-04-27T13:20:48.571Z,4.95
2023-04-27T13:23:22.166Z,3.88
2023-04-27T13:25:52.976Z,5.47
2023-04-27T13:28:23.799Z,4.35
2023-04-27T13:30:54.867Z,4.43
2023-04-27T13:33:25.974Z,3.75
2023-04-27T13:35:56.813Z,3.50
2023-04-27T13:38:30.269Z,4.45
2023-04-27T13:41:00.996Z,4.68
2023-04-27T13:43:31.929Z,4.68
2023-04-27T13:46:03.284Z,3.13
2023-04-27T13:48:35.043Z,3.65
2023-04-27T13:51:05.721Z,4.13
2023-04-27T13:53:39.213Z,3.38
2023-04-27T13:56:10.265Z,3.67
2023-04-27T13:58:42.023Z,3.17
2023-04-27T14:01:12.827Z,3.33
2023-04-27T14:03:44.100Z,4.00
2023-04-27T14:06:14.988Z,4.25
2023-04-27T14:08:48.495Z,4.13
2023-04-27T14:11:19.759Z,4.68
2023-04-27T14:13:50.946Z,4.22
2023-04-27T14:16:22.141Z,4.55
2023-04-27T14:18:52.930Z,4.93
2023-04-27T14:21:23.652Z,4.28
2023-04-27T14:23:57.079Z,3.45
2023-04-27T14:26:27.843Z,2.90
2023-04-27T14:28:59.257Z,3.85
2023-04-27T14:31:30.002Z,7.55
2023-04-27T14:34:00.671Z,4.43
2023-04-27T14:36:32.431Z,6.68
2023-04-27T14:39:07.148Z,5.20
2023-04-27T14:41:38.431Z,3.08
2023-04-27T14:44:11.508Z,2.88
2023-04-27T14:46:42.292Z,3.85
2023-04-27T14:49:13.828Z,4.10
2023-04-27T14:51:45.453Z,4.45
2023-04-27T14:54:19.058Z,5.55
2023-04-27T14:56:49.951Z,6.28
2023-04-27T14:59:21.936Z,5.82
2023-04-27T15:01:52.711Z,6.45
2023-04-27T15:04:24.136Z,6.85
2023-04-27T15:06:55.013Z,6.43
2023-04-27T15:09:28.553Z,5.50
2023-04-27T15:11:59.265Z,5.57
2023-04-27T15:14:30.152Z,6.90
2023-04-27T15:17:01.123Z,6.45
2023-04-27T15:19:32.135Z,6.88
2023-04-27T15:22:02.969Z,6.60
2023-04-27T15:24:36.530Z,7.72
2023-04-27T15:27:09.198Z,7.93
2023-04-27T15:29:41.135Z,7.55
2023-04-27T15:32:12.007Z,6.78
2023-04-27T15:34:44.904Z,6.93
2023-04-27T15:37:16.463Z,5.40
2023-04-27T15:39:49.850Z,5.80
2023-04-27T15:42:23.895Z,5.78
2023-04-27T15:44:54.760Z,5.25
2023-04-27T15:47:25.517Z,5.28
2023-04-27T15:49:58.219Z,4.88
2023-04-27T15:52:29.642Z,5.18
2023-04-27T15:55:04.592Z,3.63
2023-04-27T15:57:35.605Z,5.28
2023-04-27T16:00:10.706Z,4.82
2023-04-27T16:02:43.010Z,7.22
2023-04-27T16:05:14.165Z,5.20
2023-04-27T16:07:46.843Z,5.82
2023-04-27T16:10:23.233Z,7.05
2023-04-27T16:12:53.963Z,5.00
2023-04-27T16:15:24.860Z,4.90
2023-04-27T16:17:56.122Z,5.20
2023-04-27T16:39:51.428Z,8.40
2023-04-27T16:42:22.869Z,8.52
2023-04-27T16:44:53.692Z,8.55
2023-04-27T16:47:24.618Z,9.07
2023-04-27T16:49:55.329Z,8.27
2023-04-27T16:52:26.486Z,11.25
2023-04-27T16:54:59.871Z,11.10
2023-04-27T16:57:30.890Z,12.88
2023-04-27T17:00:01.878Z,11.30
2023-04-27T17:02:36.935Z,9.82
2023-04-27T17:05:08.413Z,7.38
2023-04-27T17:07:39.512Z,8.57
2023-04-27T17:10:13.726Z,8.93
2023-04-27T17:12:44.553Z,9.48
2023-04-27T17:15:15.609Z,9.63
2023-04-27T17:17:46.576Z,11.50
2023-04-27T17:20:17.333Z,10.88
2023-04-27T17:22:48.743Z,12.05
2023-04-27T17:25:22.436Z,11.32
2023-04-27T17:27:53.229Z,13.32
2023-04-27T17:30:23.935Z,13.02
2023-04-27T17:32:55.085Z,13.77
2023-04-27T17:35:27.130Z,11.35
2023-04-27T17:37:58.007Z,14.85
2023-04-27T17:40:31.351Z,13.82
2023-04-27T17:43:02.186Z,13.02
2023-04-27T17:45:32.986Z,11.73
2023-04-27T17:48:03.964Z,9.98
2023-04-27T17:50:35.048Z,10.10
2023-04-27T17:53:06.242Z,10.27
2023-04-27T17:55:39.992Z,9.90
2023-04-27T17:58:11.541Z,12.00
2023-04-27T18:00:42.377Z,12.82
2023-04-27T18:03:14.201Z,13.23
2023-04-27T18:05:45.243Z,13.75
2023-04-27T18:08:16.290Z,13.48
2023-04-27T18:10:49.722Z,13.82
2023-04-27T18:13:20.654Z,15.98
2023-04-27T18:15:51.653Z,14.95
2023-04-27T18:18:25.142Z,16.30
2023-04-27T18:20:56.802Z,17.23
2023-04-27T18:23:27.701Z,17.48
2023-04-27T18:26:04.845Z,18.88
2023-04-27T18:28:35.916Z,17.27
2023-04-27T18:31:06.717Z,17.48
2023-04-27T18:33:37.553Z,14.98
2023-04-27T18:36:08.589Z,13.80
2023-04-27T18:38:39.557Z,15.35
2023-04-27T18:41:13.295Z,14.75
2023-04-27T18:43:44.177Z,14.77
2023-04-27T18:46:15.030Z,13.23
2023-04-27T18:48:45.862Z,10.95
2023-04-27T18:51:16.706Z,12.70
2023-04-27T18:53:47.624Z,14.00
2023-04-27T18:56:21.077Z,13.73
2023-04-27T18:58:53.567Z,14.73
2023-04-27T19:01:25.590Z,23.33
2023-04-27T19:03:57.130Z,24.40
2023-04-27T19:06:28.585Z,21.98
2023-04-27T19:08:59.753Z,21.23
2023-04-27T19:11:33.140Z,20.02
2023-04-27T19:14:04.217Z,17.17
2023-04-27T19:16:36.369Z,17.25
2023-04-27T19:19:07.384Z,17.67
2023-04-27T19:21:39.613Z,14.13
2023-04-27T19:24:11.066Z,14.27
2023-04-27T19:26:44.519Z,16.20
2023-04-27T19:29:15.870Z,13.05
2023-04-27T19:31:47.324Z,12.82
2023-04-27T19:34:18.532Z,11.95
2023-04-27T19:36:50.439Z,11.50
2023-04-27T19:39:23.028Z,11.50
2023-04-27T19:41:56.609Z,11.07
2023-04-27T19:44:27.721Z,9.98
2023-04-27T19:46:58.445Z,10.80
2023-04-27T19:49:29.276Z,10.27
2023-04-27T19:52:00.130Z,10.25
2023-04-27T19:54:31.518Z,9.73
2023-04-27T19:57:05.188Z,10.82
2023-04-27T19:59:36.326Z,10.90
2023-04-27T20:02:07.577Z,10.43
2023-04-27T20:04:39.949Z,11.85
2023-04-27T20:07:11.211Z,11.48
2023-04-27T20:09:42.209Z,10.63
2023-04-27T20:12:34.797Z,12.85
2023-04-27T20:15:07.288Z,11.70
2023-04-27T20:17:38.209Z,11.90
2023-04-27T20:20:11.112Z,11.50
2023-04-27T20:22:42.266Z,11.85
2023-04-27T20:25:15.001Z,11.80
2023-04-27T20:27:48.887Z,11.30
2023-04-27T20:30:19.777Z,11.57
2023-04-27T20:32:50.609Z,12.07
2023-04-27T20:35:21.796Z,11.32
2023-04-27T20:37:54.188Z,11.50
2023-04-27T20:40:25.012Z,12.38
2023-04-27T20:42:58.466Z,12.38
2023-04-27T20:45:29.392Z,11.32
2023-04-27T20:48:00.388Z,11.68
2023-04-27T20:50:31.329Z,10.75
2023-04-27T20:53:01.937Z,11.55
2023-04-27T20:55:33.688Z,10.02
2023-04-27T20:58:07.152Z,10.10
2023-04-27T21:00:37.969Z,9.70
2023-04-27T21:03:09.041Z,9.40
2023-04-27T21:05:41.353Z,9.82
2023-04-27T21:08:12.058Z,8.40
2023-04-27T21:10:42.870Z,7.50
2023-04-27T21:13:16.274Z,6.93
2023-04-27T21:15:47.030Z,4.13
2023-04-27T21:18:28.996Z,3.88
2023-04-27T21:21:01.834Z,3.22
2023-04-27T21:23:32.493Z,2.97
2023-04-27T21:26:03.248Z,2.53
2023-04-27T21:28:37.491Z,2.20
2023-04-27T21:31:08.684Z,2.00
2023-04-27T21:33:39.933Z,2.75
2023-04-27T21:36:11.070Z,3.55
2023-04-27T21:38:41.740Z,2.28
2023-04-27T21:41:12.575Z,2.30
2023-04-27T21:43:46.548Z,2.13
2023-04-27T21:46:17.446Z,2.10
2023-04-27T21:48:48.175Z,1.95
2023-04-27T21:51:18.982Z,2.30
2023-04-27T21:53:49.656Z,2.13
2023-04-27T21:56:21.553Z,1.80
2023-04-27T21:58:55.461Z,2.10
2023-04-27T22:01:27.475Z,2.13
2023-04-27T22:03:59.336Z,2.10
2023-04-27T22:06:31.299Z,1.90
2023-04-27T22:09:01.962Z,2.42
2023-04-27T22:11:32.930Z,2.22
2023-04-27T22:14:06.290Z,2.00
2023-04-27T22:16:37.298Z,2.17
2023-04-27T22:19:09.546Z,2.22
2023-04-27T22:21:40.434Z,1.90
2023-04-27T22:24:11.200Z,2.00
2023-04-27T22:26:41.995Z,1.90
2023-04-27T22:29:15.387Z,1.83
2023-04-27T22:31:47.144Z,2.17
2023-04-27T22:34:18.244Z,1.80
2023-04-27T22:36:49.421Z,2.22
2023-04-27T22:39:20.312Z,1.75
2023-04-27T22:41:51.697Z,1.90
2023-04-27T22:44:24.973Z,1.88
2023-04-27T22:46:56.575Z,1.90
2023-04-27T22:49:27.239Z,2.17
2023-04-27T22:51:58.047Z,1.80
2023-04-27T22:54:28.607Z,2.00
2023-04-27T22:56:59.577Z,2.10
2023-04-27T22:59:32.793Z,1.85
2023-04-27T23:02:03.597Z,2.00
2023-04-27T23:04:34.391Z,1.90
2023-04-27T23:07:06.083Z,2.25
2023-04-27T23:09:37.002Z,2.00
2023-04-27T23:12:09.428Z,2.30
2023-04-27T23:14:43.115Z,1.90
2023-04-27T23:17:15.469Z,3.70
2023-04-27T23:19:47.124Z,1.95
2023-04-27T23:22:17.944Z,2.30
2023-04-27T23:24:48.612Z,1.83
2023-04-27T23:27:19.377Z,2.00
2023-04-27T23:29:53.042Z,2.13
2023-04-27T23:32:23.996Z,2.10
2023-04-27T23:34:56.849Z,1.77
2023-04-27T23:37:28.030Z,1.88
2023-04-27T23:39:58.663Z,1.60
2023-04-27T23:42:29.497Z,1.95
2023-04-27T23:45:02.851Z,2.10
2023-04-27T23:47:39.409Z,1.80
2023-04-27T23:50:11.203Z,1.77
2023-04-27T23:52:42.043Z,2.10
2023-04-27T23:55:13.224Z,2.10
2023-04-27T23:57:44.725Z,1.90
